sensor_id;sensor_type;location;lat;lon;timestamp;temperature;humidity
24412;DHT22;12544;46.760;15.942;2022-11-15T00:00:46;8.10;99.90
24412;DHT22;12544;46.760;15.942;2022-11-15T00:03:14;8.00;99.90
24412;DHT22;12544;46.760;15.942;2022-11-15T00:05:40;8.10;99.90
24412;DHT22;12544;46.760;15.942;2022-11-15T00:08:06;8.00;99.90
24412;DHT22;12544;46.760;15.942;2022-11-15T00:10:32;8.00;99.90
24412;DHT22;12544;46.760;15.942;2022-11-15T00:12:57;8.00;99.90
24412;DHT22;12544;46.760;15.942;2022-11-15T00:18:45;8.00;99.90
24412;DHT22;12544;46.760;15.942;2022-11-15T00:21:12;7.90;99.90
24412;DHT22;12544;46.760;15.942;2022-11-15T00:23:38;7.90;99.90
24412;DHT22;12544;46.760;15.942;2022-11-15T00:26:04;7.90;99.90
24412;DHT22;12544;46.760;15.942;2022-11-15T00:28:30;7.90;99.90
24412;DHT22;12544;46.760;15.942;2022-11-15T00:31:03;7.90;99.90
24412;DHT22;12544;46.760;15.942;2022-11-15T00:33:30;7.90;99.90
24412;DHT22;12544;46.760;15.942;2022-11-15T00:38:31;7.90;99.90
24412;DHT22;12544;46.760;15.942;2022-11-15T00:40:57;7.90;99.90
24412;DHT22;12544;46.760;15.942;2022-11-15T00:43:23;7.90;99.90
24412;DHT22;12544;46.760;15.942;2022-11-15T00:45:49;7.90;99.90
24412;DHT22;12544;46.760;15.942;2022-11-15T00:48:14;7.90;99.90
24412;DHT22;12544;46.760;15.942;2022-11-15T00:54:02;8.00;99.90
24412;DHT22;12544;46.760;15.942;2022-11-15T00:56:27;8.00;99.90
24412;DHT22;12544;46.760;15.942;2022-11-15T00:58:53;8.00;99.90
24412;DHT22;12544;46.760;15.942;2022-11-15T01:01:19;8.00;99.90
24412;DHT22;12544;46.760;15.942;2022-11-15T01:03:45;8.00;99.90
24412;DHT22;12544;46.760;15.942;2022-11-15T01:06:10;8.00;99.90
24412;DHT22;12544;46.760;15.942;2022-11-15T01:08:39;7.90;99.90
24412;DHT22;12544;46.760;15.942;2022-11-15T01:14:27;8.00;99.90
24412;DHT22;12544;46.760;15.942;2022-11-15T01:16:52;8.10;99.90
24412;DHT22;12544;46.760;15.942;2022-11-15T01:19:18;8.10;99.90
24412;DHT22;12544;46.760;15.942;2022-11-15T01:25:05;8.20;99.90
24412;DHT22;12544;46.760;15.942;2022-11-15T01:27:31;8.20;99.90
24412;DHT22;12544;46.760;15.942;2022-11-15T01:29:57;8.20;99.90
24412;DHT22;12544;46.760;15.942;2022-11-15T01:32:22;8.30;99.90
24412;DHT22;12544;46.760;15.942;2022-11-15T01:34:48;8.30;99.90
24412;DHT22;12544;46.760;15.942;2022-11-15T01:37:13;8.30;99.90
24412;DHT22;12544;46.760;15.942;2022-11-15T01:39:39;8.30;99.90
24412;DHT22;12544;46.760;15.942;2022-11-15T01:42:05;8.30;99.90
24412;DHT22;12544;46.760;15.942;2022-11-15T01:47:54;8.30;99.90
24412;DHT22;12544;46.760;15.942;2022-11-15T01:50:25;8.30;99.90
24412;DHT22;12544;46.760;15.942;2022-11-15T01:52:53;8.30;99.90
24412;DHT22;12544;46.760;15.942;2022-11-15T01:55:21;8.30;99.90
24412;DHT22;12544;46.760;15.942;2022-11-15T02:01:10;8.30;99.90
24412;DHT22;12544;46.760;15.942;2022-11-15T02:10:02;8.30;99.90
24412;DHT22;12544;46.760;15.942;2022-11-15T02:31:53;8.20;99.90
24412;DHT22;12544;46.760;15.942;2022-11-15T02:37:55;8.20;99.90
24412;DHT22;12544;46.760;15.942;2022-11-15T02:40:37;8.10;99.90
24412;DHT22;12544;46.760;15.942;2022-11-15T02:43:10;8.20;99.90
24412;DHT22;12544;46.760;15.942;2022-11-15T02:46:37;8.20;99.90
24412;DHT22;12544;46.760;15.942;2022-11-15T02:49:25;8.20;99.90
24412;DHT22;12544;46.760;15.942;2022-11-15T02:51:52;8.20;99.90
24412;DHT22;12544;46.760;15.942;2022-11-15T02:54:24;8.20;99.90
24412;DHT22;12544;46.760;15.942;2022-11-15T03:00:19;8.20;99.90
24412;DHT22;12544;46.760;15.942;2022-11-15T03:08:57;8.20;99.90
24412;DHT22;12544;46.760;15.942;2022-11-15T03:11:27;8.10;99.90
24412;DHT22;12544;46.760;15.942;2022-11-15T03:13:58;8.10;99.90
24412;DHT22;12544;46.760;15.942;2022-11-15T03:19:08;8.00;99.90
24412;DHT22;12544;46.760;15.942;2022-11-15T03:21:37;8.00;99.90
24412;DHT22;12544;46.760;15.942;2022-11-15T03:24:06;8.10;99.90
24412;DHT22;12544;46.760;15.942;2022-11-15T03:26:34;8.10;99.90
24412;DHT22;12544;46.760;15.942;2022-11-15T03:29:12;8.00;99.90
24412;DHT22;12544;46.760;15.942;2022-11-15T03:31:44;8.00;99.90
24412;DHT22;12544;46.760;15.942;2022-11-15T03:40:09;8.10;99.90
24412;DHT22;12544;46.760;15.942;2022-11-15T03:45:17;8.20;99.90
24412;DHT22;12544;46.760;15.942;2022-11-15T03:48:01;8.30;99.90
24412;DHT22;12544;46.760;15.942;2022-11-15T03:50:30;8.30;99.90
24412;DHT22;12544;46.760;15.942;2022-11-15T03:56:18;8.30;99.90
24412;DHT22;12544;46.760;15.942;2022-11-15T03:58:44;8.30;99.90
24412;DHT22;12544;46.760;15.942;2022-11-15T04:01:10;8.30;99.90
24412;DHT22;12544;46.760;15.942;2022-11-15T04:03:35;8.30;99.90
24412;DHT22;12544;46.760;15.942;2022-11-15T04:06:01;8.30;99.90
24412;DHT22;12544;46.760;15.942;2022-11-15T04:08:26;8.30;99.90
24412;DHT22;12544;46.760;15.942;2022-11-15T04:10:52;8.30;99.90
24412;DHT22;12544;46.760;15.942;2022-11-15T04:13:17;8.20;99.90
24412;DHT22;12544;46.760;15.942;2022-11-15T04:15:43;8.20;99.90
24412;DHT22;12544;46.760;15.942;2022-11-15T04:18:09;8.30;99.90
24412;DHT22;12544;46.760;15.942;2022-11-15T04:23:56;8.30;99.90
24412;DHT22;12544;46.760;15.942;2022-11-15T04:26:30;8.20;99.90
24412;DHT22;12544;46.760;15.942;2022-11-15T04:28:56;8.10;99.90
24412;DHT22;12544;46.760;15.942;2022-11-15T04:31:40;8.20;99.90
24412;DHT22;12544;46.760;15.942;2022-11-15T04:34:05;8.20;99.90
24412;DHT22;12544;46.760;15.942;2022-11-15T04:36:31;8.10;99.90
24412;DHT22;12544;46.760;15.942;2022-11-15T04:39:15;8.10;99.90
24412;DHT22;12544;46.760;15.942;2022-11-15T04:41:40;8.10;99.90
24412;DHT22;12544;46.760;15.942;2022-11-15T04:44:06;8.10;99.90
24412;DHT22;12544;46.760;15.942;2022-11-15T04:46:32;8.10;99.90
24412;DHT22;12544;46.760;15.942;2022-11-15T04:48:58;8.10;99.90
24412;DHT22;12544;46.760;15.942;2022-11-15T04:54:45;8.20;99.90
24412;DHT22;12544;46.760;15.942;2022-11-15T04:57:11;8.20;99.90
24412;DHT22;12544;46.760;15.942;2022-11-15T04:59:37;8.20;99.90
24412;DHT22;12544;46.760;15.942;2022-11-15T05:02:02;8.20;99.90
24412;DHT22;12544;46.760;15.942;2022-11-15T05:04:28;8.20;99.90
24412;DHT22;12544;46.760;15.942;2022-11-15T05:06:53;8.20;99.90
24412;DHT22;12544;46.760;15.942;2022-11-15T05:09:20;8.20;99.90
24412;DHT22;12544;46.760;15.942;2022-11-15T05:11:46;8.20;99.90
24412;DHT22;12544;46.760;15.942;2022-11-15T05:14:12;8.20;99.90
24412;DHT22;12544;46.760;15.942;2022-11-15T05:16:38;8.10;99.90
24412;DHT22;12544;46.760;15.942;2022-11-15T05:19:04;8.20;99.90
24412;DHT22;12544;46.760;15.942;2022-11-15T05:21:30;8.10;99.90
24412;DHT22;12544;46.760;15.942;2022-11-15T05:23:56;8.10;99.90
24412;DHT22;12544;46.760;15.942;2022-11-15T05:26:22;8.10;99.90
24412;DHT22;12544;46.760;15.942;2022-11-15T05:28:52;8.00;99.90
24412;DHT22;12544;46.760;15.942;2022-11-15T05:31:18;8.00;99.90
24412;DHT22;12544;46.760;15.942;2022-11-15T05:37:05;8.00;99.90
24412;DHT22;12544;46.760;15.942;2022-11-15T05:39:31;8.00;99.90
24412;DHT22;12544;46.760;15.942;2022-11-15T05:42:01;8.00;99.90
24412;DHT22;12544;46.760;15.942;2022-11-15T05:44:31;8.00;99.90
24412;DHT22;12544;46.760;15.942;2022-11-15T05:50:19;8.10;99.90
24412;DHT22;12544;46.760;15.942;2022-11-15T05:52:46;8.10;99.90
24412;DHT22;12544;46.760;15.942;2022-11-15T05:58:34;8.00;99.90
24412;DHT22;12544;46.760;15.942;2022-11-15T06:01:00;8.00;99.90
24412;DHT22;12544;46.760;15.942;2022-11-15T06:06:47;8.00;99.90
24412;DHT22;12544;46.760;15.942;2022-11-15T06:09:13;8.00;99.90
24412;DHT22;12544;46.760;15.942;2022-11-15T06:11:39;8.00;99.90
24412;DHT22;12544;46.760;15.942;2022-11-15T06:17:26;7.90;99.90
24412;DHT22;12544;46.760;15.942;2022-11-15T06:19:52;7.90;99.90
24412;DHT22;12544;46.760;15.942;2022-11-15T06:25:40;7.90;99.90
24412;DHT22;12544;46.760;15.942;2022-11-15T06:28:05;7.90;99.90
24412;DHT22;12544;46.760;15.942;2022-11-15T06:30:31;7.90;99.90
24412;DHT22;12544;46.760;15.942;2022-11-15T06:36:34;7.90;99.90
24412;DHT22;12544;46.760;15.942;2022-11-15T06:42:23;8.00;99.90
24412;DHT22;12544;46.760;15.942;2022-11-15T06:44:48;8.00;99.90
24412;DHT22;12544;46.760;15.942;2022-11-15T06:47:14;7.90;99.90
24412;DHT22;12544;46.760;15.942;2022-11-15T06:49:39;8.00;99.90
24412;DHT22;12544;46.760;15.942;2022-11-15T06:55:27;8.00;99.90
24412;DHT22;12544;46.760;15.942;2022-11-15T06:57:53;8.10;99.90
24412;DHT22;12544;46.760;15.942;2022-11-15T07:00:20;8.00;99.90
24412;DHT22;12544;46.760;15.942;2022-11-15T07:02:46;8.10;99.90
24412;DHT22;12544;46.760;15.942;2022-11-15T07:05:13;8.10;99.90
24412;DHT22;12544;46.760;15.942;2022-11-15T07:11:03;8.10;99.90
24412;DHT22;12544;46.760;15.942;2022-11-15T07:13:30;8.10;99.90
24412;DHT22;12544;46.760;15.942;2022-11-15T07:19:21;8.00;99.90
24412;DHT22;12544;46.760;15.942;2022-11-15T07:21:47;8.10;99.90
24412;DHT22;12544;46.760;15.942;2022-11-15T07:24:12;8.10;99.90
24412;DHT22;12544;46.760;15.942;2022-11-15T07:26:38;8.00;99.90
24412;DHT22;12544;46.760;15.942;2022-11-15T07:29:04;8.10;99.90
24412;DHT22;12544;46.760;15.942;2022-11-15T07:31:29;8.20;99.90
24412;DHT22;12544;46.760;15.942;2022-11-15T07:33:55;8.20;99.90
24412;DHT22;12544;46.760;15.942;2022-11-15T07:36:21;8.20;99.90
24412;DHT22;12544;46.760;15.942;2022-11-15T07:42:09;8.30;99.90
24412;DHT22;12544;46.760;15.942;2022-11-15T07:44:53;8.30;99.90
24412;DHT22;12544;46.760;15.942;2022-11-15T07:47:19;8.30;99.90
24412;DHT22;12544;46.760;15.942;2022-11-15T07:53:08;8.30;99.90
24412;DHT22;12544;46.760;15.942;2022-11-15T07:55:34;8.30;99.90
24412;DHT22;12544;46.760;15.942;2022-11-15T08:01:22;8.30;99.90
24412;DHT22;12544;46.760;15.942;2022-11-15T08:03:47;8.30;99.90
24412;DHT22;12544;46.760;15.942;2022-11-15T08:06:13;8.30;99.90
24412;DHT22;12544;46.760;15.942;2022-11-15T08:08:38;8.40;99.90
24412;DHT22;12544;46.760;15.942;2022-11-15T08:11:04;8.30;99.90
24412;DHT22;12544;46.760;15.942;2022-11-15T08:13:30;8.30;99.90
24412;DHT22;12544;46.760;15.942;2022-11-15T08:16:00;8.40;99.90
24412;DHT22;12544;46.760;15.942;2022-11-15T08:18:26;8.40;99.90
24412;DHT22;12544;46.760;15.942;2022-11-15T08:20:51;8.40;99.90
24412;DHT22;12544;46.760;15.942;2022-11-15T08:23:17;8.40;99.90
24412;DHT22;12544;46.760;15.942;2022-11-15T08:26:06;8.50;99.90
24412;DHT22;12544;46.760;15.942;2022-11-15T08:28:32;8.50;99.90
24412;DHT22;12544;46.760;15.942;2022-11-15T08:30:57;8.60;99.90
24412;DHT22;12544;46.760;15.942;2022-11-15T08:33:23;8.60;99.90
24412;DHT22;12544;46.760;15.942;2022-11-15T08:35:49;8.60;99.90
24412;DHT22;12544;46.760;15.942;2022-11-15T08:38:15;8.60;99.90
24412;DHT22;12544;46.760;15.942;2022-11-15T08:40:41;8.60;99.90
24412;DHT22;12544;46.760;15.942;2022-11-15T08:43:34;8.70;99.90
24412;DHT22;12544;46.760;15.942;2022-11-15T08:46:00;8.70;99.90
24412;DHT22;12544;46.760;15.942;2022-11-15T08:48:25;8.70;99.90
24412;DHT22;12544;46.760;15.942;2022-11-15T08:50:55;8.70;99.90
24412;DHT22;12544;46.760;15.942;2022-11-15T08:53:21;8.70;99.90
24412;DHT22;12544;46.760;15.942;2022-11-15T08:55:47;8.70;99.90
24412;DHT22;12544;46.760;15.942;2022-11-15T08:58:12;8.60;99.90
24412;DHT22;12544;46.760;15.942;2022-11-15T09:00:38;8.60;99.90
24412;DHT22;12544;46.760;15.942;2022-11-15T09:03:05;8.60;99.90
24412;DHT22;12544;46.760;15.942;2022-11-15T09:05:32;8.60;99.90
24412;DHT22;12544;46.760;15.942;2022-11-15T09:07:57;8.50;99.90
24412;DHT22;12544;46.760;15.942;2022-11-15T09:10:23;8.60;99.90
24412;DHT22;12544;46.760;15.942;2022-11-15T09:12:49;8.50;99.90
24412;DHT22;12544;46.760;15.942;2022-11-15T09:15:15;8.50;99.90
24412;DHT22;12544;46.760;15.942;2022-11-15T09:17:41;8.50;99.90
24412;DHT22;12544;46.760;15.942;2022-11-15T09:23:29;8.60;99.90
24412;DHT22;12544;46.760;15.942;2022-11-15T09:26:03;8.60;99.90
24412;DHT22;12544;46.760;15.942;2022-11-15T09:28:30;8.60;99.90
24412;DHT22;12544;46.760;15.942;2022-11-15T09:31:02;8.50;99.90
24412;DHT22;12544;46.760;15.942;2022-11-15T09:33:28;8.70;99.90
24412;DHT22;12544;46.760;15.942;2022-11-15T09:35:56;8.60;99.90
24412;DHT22;12544;46.760;15.942;2022-11-15T09:50:09;8.70;99.90
24412;DHT22;12544;46.760;15.942;2022-11-15T09:52:36;8.80;99.90
24412;DHT22;12544;46.760;15.942;2022-11-15T09:55:36;8.80;99.90
24412;DHT22;12544;46.760;15.942;2022-11-15T09:58:23;8.80;99.90
24412;DHT22;12544;46.760;15.942;2022-11-15T10:00:51;8.80;99.90
24412;DHT22;12544;46.760;15.942;2022-11-15T10:03:33;8.80;99.90
24412;DHT22;12544;46.760;15.942;2022-11-15T10:06:04;8.90;99.90
24412;DHT22;12544;46.760;15.942;2022-11-15T10:11:45;8.90;99.90
24412;DHT22;12544;46.760;15.942;2022-11-15T10:14:13;9.00;99.90
24412;DHT22;12544;46.760;15.942;2022-11-15T10:24:47;9.00;99.90
24412;DHT22;12544;46.760;15.942;2022-11-15T10:27:18;9.00;99.90
24412;DHT22;12544;46.760;15.942;2022-11-15T10:30:03;9.00;99.90
24412;DHT22;12544;46.760;15.942;2022-11-15T10:32:30;9.00;99.90
24412;DHT22;12544;46.760;15.942;2022-11-15T10:38:15;9.10;99.90
24412;DHT22;12544;46.760;15.942;2022-11-15T10:40:41;9.00;99.90
24412;DHT22;12544;46.760;15.942;2022-11-15T10:45:34;9.00;99.90
24412;DHT22;12544;46.760;15.942;2022-11-15T10:54:00;9.00;99.90
24412;DHT22;12544;46.760;15.942;2022-11-15T10:59:44;8.80;99.90
24412;DHT22;12544;46.760;15.942;2022-11-15T11:02:32;8.80;99.90
24412;DHT22;12544;46.760;15.942;2022-11-15T11:04:58;8.80;99.90
24412;DHT22;12544;46.760;15.942;2022-11-15T11:10:59;8.90;99.90
24412;DHT22;12544;46.760;15.942;2022-11-15T11:33:43;8.90;99.90
24412;DHT22;12544;46.760;15.942;2022-11-15T11:47:14;9.00;99.90
24412;DHT22;12544;46.760;15.942;2022-11-15T11:52:17;9.00;99.90
24412;DHT22;12544;46.760;15.942;2022-11-15T11:57:33;9.00;99.90
24412;DHT22;12544;46.760;15.942;2022-11-15T12:00:09;9.00;99.90
24412;DHT22;12544;46.760;15.942;2022-11-15T12:02:40;9.10;99.90
24412;DHT22;12544;46.760;15.942;2022-11-15T12:05:18;9.10;99.90
24412;DHT22;12544;46.760;15.942;2022-11-15T12:07:46;9.10;99.90
24412;DHT22;12544;46.760;15.942;2022-11-15T12:10:23;9.10;99.90
24412;DHT22;12544;46.760;15.942;2022-11-15T12:13:13;9.10;99.90
24412;DHT22;12544;46.760;15.942;2022-11-15T12:15:47;9.10;99.90
24412;DHT22;12544;46.760;15.942;2022-11-15T12:18:16;9.10;99.90
24412;DHT22;12544;46.760;15.942;2022-11-15T12:20:55;9.10;99.90
24412;DHT22;12544;46.760;15.942;2022-11-15T12:26:52;9.20;99.90
24412;DHT22;12544;46.760;15.942;2022-11-15T12:29:29;9.30;99.90
24412;DHT22;12544;46.760;15.942;2022-11-15T12:31:58;9.30;99.90
24412;DHT22;12544;46.760;15.942;2022-11-15T12:40:22;9.40;99.90
24412;DHT22;12544;46.760;15.942;2022-11-15T12:50:55;9.50;99.90
24412;DHT22;12544;46.760;15.942;2022-11-15T13:06:50;9.70;99.90
24412;DHT22;12544;46.760;15.942;2022-11-15T13:11:58;9.80;99.90
24412;DHT22;12544;46.760;15.942;2022-11-15T13:14:44;9.80;99.90
24412;DHT22;12544;46.760;15.942;2022-11-15T13:17:24;9.80;99.90
24412;DHT22;12544;46.760;15.942;2022-11-15T13:20:11;9.80;99.90
24412;DHT22;12544;46.760;15.942;2022-11-15T13:31:01;10.00;99.90
24412;DHT22;12544;46.760;15.942;2022-11-15T13:33:35;10.00;99.90
24412;DHT22;12544;46.760;15.942;2022-11-15T13:38:43;9.90;99.90
24412;DHT22;12544;46.760;15.942;2022-11-15T13:41:20;10.00;99.90
24412;DHT22;12544;46.760;15.942;2022-11-15T13:43:50;10.00;99.90
24412;DHT22;12544;46.760;15.942;2022-11-15T13:48:55;10.00;99.90
24412;DHT22;12544;46.760;15.942;2022-11-15T13:57:26;10.10;99.90
24412;DHT22;12544;46.760;15.942;2022-11-15T13:59:55;10.20;99.90
24412;DHT22;12544;46.760;15.942;2022-11-15T14:02:27;10.10;99.90
24412;DHT22;12544;46.760;15.942;2022-11-15T14:04:55;10.10;99.90
24412;DHT22;12544;46.760;15.942;2022-11-15T14:07:25;10.20;99.90
24412;DHT22;12544;46.760;15.942;2022-11-15T14:09:51;10.10;99.90
24412;DHT22;12544;46.760;15.942;2022-11-15T14:12:34;10.20;99.90
24412;DHT22;12544;46.760;15.942;2022-11-15T14:15:29;10.10;99.90
24412;DHT22;12544;46.760;15.942;2022-11-15T14:17:55;10.10;99.90
24412;DHT22;12544;46.760;15.942;2022-11-15T14:23:24;10.10;99.90
24412;DHT22;12544;46.760;15.942;2022-11-15T14:25:55;10.10;99.90
24412;DHT22;12544;46.760;15.942;2022-11-15T14:30:52;10.20;99.90
24412;DHT22;12544;46.760;15.942;2022-11-15T14:33:29;10.20;99.90
24412;DHT22;12544;46.760;15.942;2022-11-15T14:35:57;10.20;99.90
24412;DHT22;12544;46.760;15.942;2022-11-15T14:38:27;10.20;99.90
24412;DHT22;12544;46.760;15.942;2022-11-15T14:40:53;10.30;99.90
24412;DHT22;12544;46.760;15.942;2022-11-15T14:43:20;10.30;99.90
24412;DHT22;12544;46.760;15.942;2022-11-15T14:45:45;10.30;99.90
24412;DHT22;12544;46.760;15.942;2022-11-15T14:48:11;10.30;99.90
24412;DHT22;12544;46.760;15.942;2022-11-15T14:50:37;10.30;99.90
24412;DHT22;12544;46.760;15.942;2022-11-15T14:53:03;10.30;99.90
24412;DHT22;12544;46.760;15.942;2022-11-15T14:55:31;10.30;99.90
24412;DHT22;12544;46.760;15.942;2022-11-15T14:57:59;10.30;99.90
24412;DHT22;12544;46.760;15.942;2022-11-15T15:00:24;10.40;99.90
24412;DHT22;12544;46.760;15.942;2022-11-15T15:02:52;10.40;99.90
24412;DHT22;12544;46.760;15.942;2022-11-15T15:07:58;10.30;99.90
24412;DHT22;12544;46.760;15.942;2022-11-15T15:10:25;10.40;99.90
24412;DHT22;12544;46.760;15.942;2022-11-15T15:12:50;10.30;99.90
24412;DHT22;12544;46.760;15.942;2022-11-15T15:15:24;10.30;99.90
24412;DHT22;12544;46.760;15.942;2022-11-15T15:17:49;10.30;99.90
24412;DHT22;12544;46.760;15.942;2022-11-15T15:20:16;10.40;99.90
24412;DHT22;12544;46.760;15.942;2022-11-15T15:22:41;10.40;99.90
24412;DHT22;12544;46.760;15.942;2022-11-15T15:25:20;10.40;99.90
24412;DHT22;12544;46.760;15.942;2022-11-15T15:27:48;10.50;99.90
24412;DHT22;12544;46.760;15.942;2022-11-15T15:30:14;10.60;99.90
24412;DHT22;12544;46.760;15.942;2022-11-15T15:32:39;10.60;99.90
24412;DHT22;12544;46.760;15.942;2022-11-15T15:35:05;10.60;99.90
24412;DHT22;12544;46.760;15.942;2022-11-15T15:37:31;10.60;99.90
24412;DHT22;12544;46.760;15.942;2022-11-15T15:39:58;10.60;99.90
24412;DHT22;12544;46.760;15.942;2022-11-15T15:42:24;10.60;99.90
24412;DHT22;12544;46.760;15.942;2022-11-15T15:44:50;10.60;99.90
24412;DHT22;12544;46.760;15.942;2022-11-15T15:47:19;10.60;99.90
24412;DHT22;12544;46.760;15.942;2022-11-15T15:49:52;10.70;99.90
24412;DHT22;12544;46.760;15.942;2022-11-15T15:52:18;10.70;99.90
24412;DHT22;12544;46.760;15.942;2022-11-15T15:54:44;10.70;99.90
24412;DHT22;12544;46.760;15.942;2022-11-15T15:57:12;10.70;99.90
24412;DHT22;12544;46.760;15.942;2022-11-15T15:59:38;10.70;99.90
24412;DHT22;12544;46.760;15.942;2022-11-15T16:02:04;10.70;99.90
24412;DHT22;12544;46.760;15.942;2022-11-15T16:04:29;10.70;99.90
24412;DHT22;12544;46.760;15.942;2022-11-15T16:06:59;10.70;99.90
24412;DHT22;12544;46.760;15.942;2022-11-15T16:09:25;10.70;99.90
24412;DHT22;12544;46.760;15.942;2022-11-15T16:12:09;10.70;99.90
24412;DHT22;12544;46.760;15.942;2022-11-15T16:14:35;10.70;99.90
24412;DHT22;12544;46.760;15.942;2022-11-15T16:17:01;10.70;99.90
24412;DHT22;12544;46.760;15.942;2022-11-15T16:19:27;10.70;99.90
24412;DHT22;12544;46.760;15.942;2022-11-15T16:21:53;10.70;99.90
24412;DHT22;12544;46.760;15.942;2022-11-15T16:24:19;10.70;99.90
24412;DHT22;12544;46.760;15.942;2022-11-15T16:26:46;10.70;99.90
24412;DHT22;12544;46.760;15.942;2022-11-15T16:29:12;10.60;99.90
24412;DHT22;12544;46.760;15.942;2022-11-15T16:31:38;10.60;99.90
24412;DHT22;12544;46.760;15.942;2022-11-15T16:34:03;10.60;99.90
24412;DHT22;12544;46.760;15.942;2022-11-15T16:36:32;10.70;99.90
24412;DHT22;12544;46.760;15.942;2022-11-15T16:38:59;10.60;99.90
24412;DHT22;12544;46.760;15.942;2022-11-15T16:41:25;10.60;99.90
24412;DHT22;12544;46.760;15.942;2022-11-15T16:43:50;10.60;99.90
24412;DHT22;12544;46.760;15.942;2022-11-15T16:46:21;10.60;99.90
24412;DHT22;12544;46.760;15.942;2022-11-15T16:48:48;10.60;99.90
24412;DHT22;12544;46.760;15.942;2022-11-15T16:51:14;10.50;99.90
24412;DHT22;12544;46.760;15.942;2022-11-15T16:53:40;10.50;99.90
24412;DHT22;12544;46.760;15.942;2022-11-15T16:56:24;10.50;99.90
24412;DHT22;12544;46.760;15.942;2022-11-15T16:58:51;10.50;99.90
24412;DHT22;12544;46.760;15.942;2022-11-15T17:01:22;10.40;99.90
24412;DHT22;12544;46.760;15.942;2022-11-15T17:03:48;10.40;99.90
24412;DHT22;12544;46.760;15.942;2022-11-15T17:06:14;10.40;99.90
24412;DHT22;12544;46.760;15.942;2022-11-15T17:08:42;10.40;99.90
24412;DHT22;12544;46.760;15.942;2022-11-15T17:11:08;10.30;99.90
24412;DHT22;12544;46.760;15.942;2022-11-15T17:13:34;10.30;99.90
24412;DHT22;12544;46.760;15.942;2022-11-15T17:16:07;10.30;99.90
24412;DHT22;12544;46.760;15.942;2022-11-15T17:18:34;10.20;99.90
24412;DHT22;12544;46.760;15.942;2022-11-15T17:21:11;10.20;99.90
24412;DHT22;12544;46.760;15.942;2022-11-15T17:23:59;10.30;99.90
24412;DHT22;12544;46.760;15.942;2022-11-15T17:26:25;10.30;99.90
24412;DHT22;12544;46.760;15.942;2022-11-15T17:28:54;10.30;99.90
24412;DHT22;12544;46.760;15.942;2022-11-15T17:31:20;10.30;99.90
24412;DHT22;12544;46.760;15.942;2022-11-15T17:33:46;10.30;99.90
24412;DHT22;12544;46.760;15.942;2022-11-15T17:36:11;10.30;99.90
24412;DHT22;12544;46.760;15.942;2022-11-15T17:38:40;10.40;99.90
24412;DHT22;12544;46.760;15.942;2022-11-15T17:41:09;10.40;99.90
24412;DHT22;12544;46.760;15.942;2022-11-15T17:43:40;10.30;99.90
24412;DHT22;12544;46.760;15.942;2022-11-15T17:46:09;10.40;99.90
24412;DHT22;12544;46.760;15.942;2022-11-15T17:48:35;10.40;99.90
24412;DHT22;12544;46.760;15.942;2022-11-15T17:51:03;10.40;99.90
24412;DHT22;12544;46.760;15.942;2022-11-15T17:53:36;10.30;99.90
24412;DHT22;12544;46.760;15.942;2022-11-15T17:56:04;10.40;99.90
24412;DHT22;12544;46.760;15.942;2022-11-15T17:58:52;10.40;99.90
24412;DHT22;12544;46.760;15.942;2022-11-15T18:01:22;10.40;99.90
24412;DHT22;12544;46.760;15.942;2022-11-15T18:03:49;10.40;99.90
24412;DHT22;12544;46.760;15.942;2022-11-15T18:06:16;10.40;99.90
24412;DHT22;12544;46.760;15.942;2022-11-15T18:08:43;10.40;99.90
24412;DHT22;12544;46.760;15.942;2022-11-15T18:11:10;10.40;99.90
24412;DHT22;12544;46.760;15.942;2022-11-15T18:13:45;10.40;99.90
24412;DHT22;12544;46.760;15.942;2022-11-15T18:16:13;10.40;99.90
24412;DHT22;12544;46.760;15.942;2022-11-15T18:18:40;10.40;99.90
24412;DHT22;12544;46.760;15.942;2022-11-15T18:21:12;10.40;99.90
24412;DHT22;12544;46.760;15.942;2022-11-15T18:24:00;10.30;99.90
24412;DHT22;12544;46.760;15.942;2022-11-15T18:26:28;10.30;99.90
24412;DHT22;12544;46.760;15.942;2022-11-15T18:28:56;10.30;99.90
24412;DHT22;12544;46.760;15.942;2022-11-15T18:31:24;10.30;99.90
24412;DHT22;12544;46.760;15.942;2022-11-15T18:33:51;10.30;99.90
24412;DHT22;12544;46.760;15.942;2022-11-15T18:36:22;10.30;99.90
24412;DHT22;12544;46.760;15.942;2022-11-15T18:38:56;10.30;99.90
24412;DHT22;12544;46.760;15.942;2022-11-15T18:41:22;10.30;99.90
24412;DHT22;12544;46.760;15.942;2022-11-15T18:43:59;10.30;99.90
24412;DHT22;12544;46.760;15.942;2022-11-15T18:46:28;10.30;99.90
24412;DHT22;12544;46.760;15.942;2022-11-15T18:48:54;10.20;99.90
24412;DHT22;12544;46.760;15.942;2022-11-15T18:51:22;10.20;99.90
24412;DHT22;12544;46.760;15.942;2022-11-15T18:53:52;10.20;99.90
24412;DHT22;12544;46.760;15.942;2022-11-15T18:56:19;10.20;99.90
24412;DHT22;12544;46.760;15.942;2022-11-15T18:58:50;10.20;99.90
24412;DHT22;12544;46.760;15.942;2022-11-15T19:01:22;10.20;99.90
24412;DHT22;12544;46.760;15.942;2022-11-15T19:03:50;10.30;99.90
24412;DHT22;12544;46.760;15.942;2022-11-15T19:06:17;10.30;99.90
24412;DHT22;12544;46.760;15.942;2022-11-15T19:08:45;10.30;99.90
24412;DHT22;12544;46.760;15.942;2022-11-15T19:11:18;10.30;99.90
24412;DHT22;12544;46.760;15.942;2022-11-15T19:13:46;10.40;99.90
24412;DHT22;12544;46.760;15.942;2022-11-15T19:16:13;10.40;99.90
24412;DHT22;12544;46.760;15.942;2022-11-15T19:18:40;10.40;99.90
24412;DHT22;12544;46.760;15.942;2022-11-15T19:21:08;10.40;99.90
24412;DHT22;12544;46.760;15.942;2022-11-15T19:23:35;10.40;99.90
24412;DHT22;12544;46.760;15.942;2022-11-15T19:26:02;10.40;99.90
24412;DHT22;12544;46.760;15.942;2022-11-15T19:28:28;10.30;99.90
24412;DHT22;12544;46.760;15.942;2022-11-15T19:31:05;10.30;99.90
24412;DHT22;12544;46.760;15.942;2022-11-15T19:33:32;10.40;99.90
24412;DHT22;12544;46.760;15.942;2022-11-15T19:36:00;10.40;99.90
24412;DHT22;12544;46.760;15.942;2022-11-15T19:38:26;10.40;99.90
24412;DHT22;12544;46.760;15.942;2022-11-15T19:40:57;10.40;99.90
24412;DHT22;12544;46.760;15.942;2022-11-15T19:43:23;10.30;99.90
24412;DHT22;12544;46.760;15.942;2022-11-15T19:45:53;10.30;99.90
24412;DHT22;12544;46.760;15.942;2022-11-15T19:48:19;10.30;99.90
24412;DHT22;12544;46.760;15.942;2022-11-15T19:50:44;10.30;99.90
24412;DHT22;12544;46.760;15.942;2022-11-15T19:53:10;10.30;99.90
24412;DHT22;12544;46.760;15.942;2022-11-15T19:55:35;10.30;99.90
24412;DHT22;12544;46.760;15.942;2022-11-15T19:58:01;10.30;99.90
24412;DHT22;12544;46.760;15.942;2022-11-15T20:00:31;10.30;99.90
24412;DHT22;12544;46.760;15.942;2022-11-15T20:02:56;10.30;99.90
24412;DHT22;12544;46.760;15.942;2022-11-15T20:05:22;10.20;99.90
24412;DHT22;12544;46.760;15.942;2022-11-15T20:07:48;10.20;99.90